Carolina, PR

7:11 AM AST on September 17, 2014 (GMT -0400)
Manejo de Emergencias | Change Station
CLOSE
Current Station
Personal Weather Station
Location: Carolina, PR
Elevation: 40 ft
Nearby Weather Stations

Elev 40 ft 18.38 °N, 65.97 °W | Updated 7 minutes ago

Scattered Clouds
Scattered Clouds
74.6 °F
Feels Like 73 °F
N
0.0
Wind Variable Wind from WSW
Gusts 2.0 mph

Today
High -- | Low -- °F
--% Chance of Precip.
Yesterday
High -- | Low -- °F
Precip. -- in
6:12 AM 6:24 PM
Last Quarter, 37% visible
Pressure 29.96 in
Visibility 10.0 miles
Clouds Few 2500 ft
Scattered Clouds 8000 ft
Heat Index 73 °F
Dew Point 72 °F
Humidity 90%
Rainfall -999.00 in
Snow Depth Not available.
UV 0 out of 12
Pollen Not available.
Air Quality Not available.
Flu Activity Not available.
METAR TJSJ 171056Z 00000KT 10SM FEW025 SCT080 26/23 A2996 RMK AO2 SLP145 T02610233

More Conditions Fewer Conditions

Pressure 29.96 in
Visibility 10.0 miles
Clouds Few 2500 ft
Scattered Clouds 8000 ft
Heat Index 73 °F
Dew Point 72 °F
Humidity 90%
Rainfall -999.00 in
Snow Depth Not available.
UV 0 out of 12
Pollen Not available.
Air Quality Not available.
Flu Activity Not available.
METAR TJSJ 171056Z 00000KT 10SM FEW025 SCT080 26/23 A2996 RMK AO2 SLP145 T02610233

More Conditions Fewer Conditions

10-Day Weather Forecast

Almanac

Astronomy

Sep. 17, 2014 Rise Set
Actual Time 6:12 AM AST 6:24 PM AST
Civil Twilight 5:50 AM AST 6:46 PM AST
Nautical Twilight 5:24 AM AST 7:11 PM AST
Astronomical Twilight 4:59 AM AST 7:37 PM AST
Moon 12:43 AM AST 1:57 PM AST
Length of Visible Light 12h 56m
Length of Day
12h 12m
Tomorrow will be 1m 2s shorter.
Last Quarter, 37% of the Moon is Illuminated
Today
Last Quarter
Sep 24
New
Oct 1
First Quarter
Oct 8
Full
Oct 15
Last Quarter

Community

WunderPhotos

Upload Photos

1,754,002 photos uploaded!

Nearby

Snow Depth

Station Depth Elevation
No new snow has been reported.

Earthquake Activity

City Distance Mag. Time & Date
No recent earthquake activity has been reported nearby.
Minimum magnitude displayed is 2.5.

Coastal Water Temperatures

Place Temperature
San Juan, PR 84.9 °F
Mayaguez, PR 84.0 °F
Esperanza, PR 84.0 °F

Nearby Weather Stations